createdAt,value
2018-04-15T00:00:26.224Z,3.30
2018-04-15T00:02:53.696Z,3.87
2018-04-15T00:05:21.144Z,3.30
2018-04-15T00:07:48.660Z,5.13
2018-04-15T00:10:16.099Z,3.70
2018-04-15T00:12:43.556Z,4.17
2018-04-15T00:15:11.013Z,5.20
2018-04-15T00:17:38.523Z,4.67
2018-04-15T00:20:05.975Z,4.43
2018-04-15T00:22:33.440Z,4.83
2018-04-15T00:25:00.892Z,4.40
2018-04-15T00:27:28.359Z,4.40
2018-04-15T00:29:55.917Z,4.30
2018-04-15T00:32:23.375Z,3.93
2018-04-15T00:34:50.833Z,4.63
2018-04-15T00:37:18.288Z,3.83
2018-04-15T00:39:45.741Z,3.27
2018-04-15T00:42:13.204Z,2.60
2018-04-15T00:44:41.501Z,3.97
2018-04-15T00:47:09.727Z,5.70
2018-04-15T00:49:37.168Z,5.00
2018-04-15T00:52:04.641Z,4.13
2018-04-15T00:54:32.086Z,3.53
2018-04-15T00:56:59.556Z,4.40
2018-04-15T00:59:26.996Z,5.20
2018-04-15T01:01:54.457Z,3.73
2018-04-15T01:04:21.912Z,4.07
2018-04-15T01:06:49.376Z,2.57
2018-04-15T01:09:16.824Z,4.70
2018-04-15T01:11:44.285Z,3.27
2018-04-15T01:14:11.740Z,4.57
2018-04-15T01:16:39.196Z,5.83
2018-04-15T01:19:06.651Z,3.90
2018-04-15T01:21:34.109Z,5.37
2018-04-15T01:24:01.561Z,3.00
2018-04-15T01:26:29.037Z,2.40
2018-04-15T01:28:56.490Z,6.63
2018-04-15T01:31:23.940Z,3.57
2018-04-15T01:33:51.410Z,3.63
2018-04-15T01:36:20.364Z,4.90
2018-04-15T01:38:47.837Z,2.67
2018-04-15T01:41:15.295Z,4.83
2018-04-15T01:43:42.751Z,3.70
2018-04-15T01:46:10.204Z,4.87
2018-04-15T01:48:37.665Z,5.60
2018-04-15T01:51:05.119Z,3.67
2018-04-15T01:53:32.679Z,2.33
2018-04-15T01:56:00.137Z,5.50
2018-04-15T01:58:27.614Z,4.90
2018-04-15T02:00:55.059Z,2.60
2018-04-15T02:03:22.515Z,4.17
2018-04-15T02:05:50.072Z,5.33
2018-04-15T02:08:17.528Z,3.00
2018-04-15T02:10:44.980Z,2.20
2018-04-15T02:13:12.441Z,3.70
2018-04-15T02:15:39.986Z,3.87
2018-04-15T02:18:07.445Z,2.20
2018-04-15T02:20:34.895Z,2.50
2018-04-15T02:23:02.353Z,6.03
2018-04-15T02:25:29.800Z,3.23
2018-04-15T02:27:57.264Z,4.73
2018-04-15T02:30:24.711Z,3.10
2018-04-15T02:32:52.173Z,3.53
2018-04-15T02:35:19.641Z,5.87
2018-04-15T02:37:47.118Z,2.93
2018-04-15T02:40:14.563Z,3.43
2018-04-15T02:42:42.020Z,2.90
2018-04-15T02:45:09.474Z,3.00
2018-04-15T02:47:36.933Z,3.30
2018-04-15T02:50:04.388Z,3.10
2018-04-15T02:52:31.854Z,2.57
2018-04-15T02:54:59.300Z,3.17
2018-04-15T02:57:26.755Z,4.17
2018-04-15T02:59:54.204Z,3.30
2018-04-15T03:02:21.675Z,4.30
2018-04-15T03:04:49.120Z,2.83
2018-04-15T03:07:16.572Z,4.17
2018-04-15T03:09:44.032Z,3.83
2018-04-15T03:12:11.488Z,3.00
2018-04-15T03:14:38.952Z,4.70
2018-04-15T03:17:06.395Z,5.37
2018-04-15T03:19:33.959Z,4.20
2018-04-15T03:22:01.408Z,2.63
2018-04-15T03:24:28.975Z,3.30
2018-04-15T03:26:56.428Z,2.10
2018-04-15T03:29:23.891Z,3.30
2018-04-15T03:31:51.348Z,9.40
2018-04-15T03:34:18.900Z,3.43
2018-04-15T03:36:46.357Z,2.30
2018-04-15T03:39:13.817Z,4.17
2018-04-15T03:41:41.264Z,2.40
2018-04-15T03:44:08.727Z,4.83
2018-04-15T03:46:36.173Z,2.30
2018-04-15T03:49:03.636Z,4.43
2018-04-15T03:51:31.096Z,3.80
2018-04-15T03:54:00.063Z,2.30
2018-04-15T03:56:27.516Z,6.33
2018-04-15T03:58:54.978Z,5.17
2018-04-15T04:01:22.432Z,3.33
2018-04-15T04:03:49.897Z,4.67
2018-04-15T04:06:17.473Z,2.40
2018-04-15T04:08:44.931Z,4.83
2018-04-15T04:11:12.381Z,2.30
2018-04-15T04:13:39.845Z,3.73
2018-04-15T04:16:07.296Z,3.87
2018-04-15T04:18:46.732Z,2.93
2018-04-15T04:21:26.165Z,3.00
2018-04-15T04:24:05.563Z,4.77
2018-04-15T04:26:33.059Z,3.33
2018-04-15T04:29:02.020Z,3.53
2018-04-15T04:31:29.476Z,2.00
2018-04-15T04:33:56.937Z,3.97
2018-04-15T04:36:24.401Z,2.27
2018-04-15T04:38:51.862Z,4.07
2018-04-15T04:41:19.325Z,2.63
2018-04-15T04:43:46.772Z,4.10
2018-04-15T04:46:14.232Z,4.67
2018-04-15T04:48:41.694Z,2.83
2018-04-15T04:51:09.144Z,2.70
2018-04-15T04:53:36.606Z,3.00
2018-04-15T04:56:04.052Z,2.10
2018-04-15T04:58:31.515Z,3.00
2018-04-15T05:00:59.074Z,3.10
2018-04-15T05:03:26.528Z,3.17
2018-04-15T05:05:53.992Z,2.83
2018-04-15T05:08:21.441Z,5.63
2018-04-15T05:10:48.895Z,2.70
2018-04-15T05:13:17.175Z,2.80
2018-04-15T05:15:44.734Z,2.93
2018-04-15T05:18:12.283Z,3.00
2018-04-15T05:20:39.752Z,2.83
2018-04-15T05:23:07.204Z,4.13
2018-04-15T05:25:34.759Z,4.03
2018-04-15T05:28:02.215Z,5.10
2018-04-15T05:30:29.672Z,2.77
2018-04-15T05:32:57.127Z,2.87
2018-04-15T05:35:24.590Z,4.40
2018-04-15T05:37:52.151Z,3.33
2018-04-15T05:40:19.621Z,2.83
2018-04-15T05:42:47.152Z,3.53
2018-04-15T05:45:14.612Z,3.43
2018-04-15T05:47:42.101Z,3.63
2018-04-15T05:50:09.528Z,2.57
2018-04-15T05:52:37.753Z,2.20
2018-04-15T05:55:05.204Z,4.13
2018-04-15T05:57:32.651Z,2.57
2018-04-15T06:00:00.160Z,2.10
2018-04-15T06:02:27.610Z,3.30
2018-04-15T06:04:55.176Z,1.83
2018-04-15T06:07:22.628Z,2.20
2018-04-15T06:09:50.088Z,3.73
2018-04-15T06:12:17.540Z,3.17
2018-04-15T06:14:44.999Z,2.20
2018-04-15T06:17:12.456Z,2.83
2018-04-15T06:19:39.920Z,3.20
2018-04-15T06:22:07.375Z,2.93
2018-04-15T06:24:34.889Z,3.27
2018-04-15T06:27:02.397Z,2.50
2018-04-15T06:29:29.857Z,2.57
2018-04-15T06:31:57.321Z,4.47
2018-04-15T06:34:25.568Z,3.93
2018-04-15T06:36:53.103Z,2.03
2018-04-15T06:39:20.476Z,5.07
2018-04-15T06:41:47.983Z,2.10
2018-04-15T06:44:16.188Z,2.03
2018-04-15T06:46:43.668Z,2.37
2018-04-15T06:49:11.119Z,3.80
2018-04-15T06:51:38.580Z,2.77
2018-04-15T06:54:06.027Z,4.33
2018-04-15T06:56:33.485Z,2.07
2018-04-15T06:59:00.930Z,3.47
2018-04-15T07:01:28.410Z,4.20
2018-04-15T07:03:55.840Z,3.43
2018-04-15T07:06:23.317Z,2.80
2018-04-15T07:08:50.775Z,3.67
2018-04-15T07:11:18.236Z,4.80
2018-04-15T07:13:45.692Z,2.63
2018-04-15T07:16:13.615Z,3.00
2018-04-15T07:18:41.052Z,5.73
2018-04-15T07:21:08.572Z,2.97
2018-04-15T07:23:36.032Z,2.87
2018-04-15T07:26:03.575Z,2.90
2018-04-15T07:28:31.027Z,4.70
2018-04-15T07:30:58.484Z,3.50
2018-04-15T07:33:25.939Z,3.37
2018-04-15T07:35:53.398Z,2.27
2018-04-15T07:38:20.853Z,3.00
2018-04-15T07:40:48.428Z,2.57
2018-04-15T07:43:15.878Z,3.30
2018-04-15T07:45:43.562Z,9.40
2018-04-15T07:48:12.391Z,21.50
2018-04-15T07:50:41.149Z,35.90
2018-04-15T07:53:08.613Z,40.90
2018-04-15T07:55:36.076Z,40.00
2018-04-15T07:58:03.531Z,33.97
2018-04-15T08:00:31.001Z,39.57
2018-04-15T08:02:58.488Z,39.13
2018-04-15T08:05:25.959Z,36.70
2018-04-15T08:07:53.420Z,36.77
2018-04-15T08:10:20.893Z,31.57
2018-04-15T08:12:49.126Z,32.23
2018-04-15T08:15:16.584Z,23.30
2018-04-15T08:17:44.048Z,20.83
2018-04-15T08:20:11.504Z,21.47
2018-04-15T08:22:39.749Z,20.27
2018-04-15T08:25:07.206Z,19.67
2018-04-15T08:27:34.680Z,26.00
2018-04-15T08:30:02.144Z,21.27
2018-04-15T08:32:29.618Z,15.73
2018-04-15T08:34:57.081Z,20.60
2018-04-15T08:37:25.335Z,19.97
2018-04-15T08:39:52.792Z,18.73
2018-04-15T08:42:20.343Z,17.63
2018-04-15T08:44:47.801Z,15.00
2018-04-15T08:47:15.266Z,16.47
2018-04-15T08:49:42.815Z,18.87
2018-04-15T08:52:10.282Z,14.00
2018-04-15T08:54:37.841Z,11.17
2018-04-15T08:57:06.803Z,12.87
2018-04-15T08:59:34.258Z,8.80
2018-04-15T09:02:01.736Z,11.67
2018-04-15T09:04:29.187Z,13.87
2018-04-15T09:06:56.660Z,15.57
2018-04-15T09:09:24.104Z,15.63
2018-04-15T09:11:51.574Z,16.30
2018-04-15T09:14:19.023Z,19.30
2018-04-15T09:16:46.494Z,14.70
2018-04-15T09:19:14.024Z,19.17
2018-04-15T09:21:41.488Z,13.70
2018-04-15T09:24:08.944Z,17.20
2018-04-15T09:26:36.412Z,23.93
2018-04-15T09:29:03.860Z,28.87
2018-04-15T09:31:31.323Z,31.90
2018-04-15T09:33:58.779Z,34.23
2018-04-15T09:36:26.328Z,32.07
2018-04-15T09:38:53.792Z,27.10
2018-04-15T09:41:21.262Z,25.93
2018-04-15T09:43:49.480Z,32.10
2018-04-15T09:46:16.955Z,25.60
2018-04-15T09:48:44.407Z,21.30
2018-04-15T09:51:11.888Z,25.43
2018-04-15T09:53:39.347Z,26.57
2018-04-15T09:56:06.799Z,17.37
2018-04-15T09:58:34.359Z,27.23
2018-04-15T10:01:03.691Z,21.60
2018-04-15T10:03:31.204Z,23.30
2018-04-15T10:05:58.779Z,35.63
2018-04-15T10:08:26.259Z,25.40
2018-04-15T10:10:54.508Z,26.47
2018-04-15T10:13:21.939Z,20.33
2018-04-15T10:15:49.399Z,27.20
2018-04-15T10:18:16.859Z,22.67
2018-04-15T10:20:44.317Z,24.90
2018-04-15T10:23:11.808Z,24.20
2018-04-15T10:25:40.028Z,17.93
2018-04-15T10:28:07.499Z,22.10
2018-04-15T10:30:34.955Z,19.07
2018-04-15T10:33:02.415Z,18.20
2018-04-15T10:35:29.879Z,27.97
2018-04-15T10:37:57.362Z,23.03
2018-04-15T10:40:25.585Z,28.90
2018-04-15T10:42:53.048Z,20.50
2018-04-15T10:45:20.509Z,24.83
2018-04-15T10:47:47.973Z,21.73
2018-04-15T10:50:15.531Z,18.70
2018-04-15T10:52:42.992Z,22.53
2018-04-15T10:55:10.466Z,22.83
2018-04-15T10:57:37.932Z,19.57
2018-04-15T11:00:06.156Z,19.07
2018-04-15T11:02:33.640Z,19.00
2018-04-15T11:05:01.096Z,15.07
2018-04-15T11:07:28.573Z,24.00
2018-04-15T11:09:56.804Z,16.17
2018-04-15T11:12:24.279Z,16.83
2018-04-15T11:14:51.751Z,23.00
2018-04-15T11:17:19.226Z,15.57
2018-04-15T11:19:47.469Z,16.57
2018-04-15T11:22:15.028Z,16.60
2018-04-15T11:24:42.500Z,14.90
2018-04-15T11:27:10.737Z,15.80
2018-04-15T11:29:38.303Z,18.23
2018-04-15T11:32:05.960Z,18.93
2018-04-15T11:34:33.525Z,13.30
2018-04-15T11:37:00.979Z,13.03
2018-04-15T11:39:28.546Z,13.83
2018-04-15T11:41:56.008Z,14.93
2018-04-15T11:44:23.502Z,12.57
2018-04-15T11:46:50.953Z,18.43
2018-04-15T11:49:18.428Z,15.07
2018-04-15T11:51:46.409Z,20.73
2018-04-15T11:54:13.860Z,15.90
2018-04-15T11:56:41.327Z,13.77
2018-04-15T11:59:08.800Z,18.93
2018-04-15T12:01:36.283Z,18.57
2018-04-15T12:04:04.557Z,21.10
2018-04-15T12:06:32.784Z,18.30
2018-04-15T12:09:00.401Z,24.70
2018-04-15T12:11:28.651Z,20.73
2018-04-15T12:13:56.230Z,13.33
2018-04-15T12:16:24.515Z,24.13
2018-04-15T12:18:52.992Z,17.23
2018-04-15T12:21:21.203Z,16.37
2018-04-15T12:23:48.669Z,16.53
2018-04-15T12:26:16.236Z,18.60
2018-04-15T12:28:43.818Z,14.37
2018-04-15T12:31:11.365Z,19.37
2018-04-15T12:33:38.888Z,14.70
2018-04-15T12:36:07.060Z,15.10
2018-04-15T12:38:34.525Z,13.30
2018-04-15T12:41:02.000Z,13.20
2018-04-15T12:43:29.452Z,15.10
2018-04-15T12:45:56.902Z,18.17
2018-04-15T12:48:24.364Z,11.77
2018-04-15T12:50:51.823Z,13.07
2018-04-15T12:53:19.285Z,15.20
2018-04-15T12:55:46.740Z,9.57
2018-04-15T12:58:14.295Z,8.03
2018-04-15T13:00:42.099Z,16.50
2018-04-15T13:03:10.469Z,9.13
2018-04-15T13:05:38.707Z,9.90
2018-04-15T13:08:06.397Z,10.23
2018-04-15T13:10:34.725Z,13.27
2018-04-15T13:13:03.974Z,14.47
2018-04-15T13:15:32.458Z,11.97
2018-04-15T13:18:00.688Z,16.13
2018-04-15T13:20:28.257Z,9.13
2018-04-15T13:22:55.712Z,10.00
2018-04-15T13:25:23.192Z,13.00
2018-04-15T13:27:51.412Z,10.40
2018-04-15T13:30:18.879Z,15.50
2018-04-15T13:32:46.340Z,16.70
2018-04-15T13:35:13.804Z,12.37
2018-04-15T13:37:41.429Z,11.63
2018-04-15T13:40:08.884Z,15.77
2018-04-15T13:42:36.394Z,10.53
2018-04-15T13:45:03.936Z,8.90
2018-04-15T13:47:31.392Z,11.60
2018-04-15T13:50:03.787Z,8.40
2018-04-15T13:52:32.021Z,9.63
2018-04-15T13:55:00.431Z,9.53
2018-04-15T13:57:29.083Z,12.07
2018-04-15T13:59:57.684Z,10.07
2018-04-15T14:02:25.161Z,10.33
2018-04-15T14:04:53.579Z,12.63
2018-04-15T14:07:21.039Z,10.70
2018-04-15T14:09:48.504Z,10.83
2018-04-15T14:12:15.984Z,10.30
2018-04-15T14:14:43.450Z,12.30
2018-04-15T14:17:10.903Z,13.70
2018-04-15T14:19:39.132Z,15.77
2018-04-15T14:22:06.585Z,11.30
2018-04-15T14:24:34.051Z,16.77
2018-04-15T14:27:02.225Z,16.53
2018-04-15T14:29:29.689Z,14.33
2018-04-15T14:31:57.148Z,15.97
2018-04-15T14:34:24.625Z,13.07
2018-04-15T14:36:52.083Z,13.10
2018-04-15T14:39:19.645Z,12.10
2018-04-15T14:41:47.101Z,11.07
2018-04-15T14:44:14.573Z,12.73
2018-04-15T14:46:42.863Z,11.93
2018-04-15T14:49:11.243Z,10.73
2018-04-15T14:51:38.762Z,9.37
2018-04-15T14:54:06.225Z,9.43
2018-04-15T14:56:33.667Z,11.50
2018-04-15T14:59:01.143Z,11.83
2018-04-15T15:01:28.593Z,14.40
2018-04-15T15:03:56.882Z,12.87
2018-04-15T15:06:25.125Z,13.23
2018-04-15T15:08:52.629Z,9.73
2018-04-15T15:11:20.167Z,14.13
2018-04-15T15:13:48.393Z,14.43
2018-04-15T15:16:15.854Z,10.37
2018-04-15T15:18:43.315Z,11.13
2018-04-15T15:21:10.775Z,11.27
2018-04-15T15:23:38.228Z,10.20
2018-04-15T15:26:05.696Z,10.37
2018-04-15T15:28:33.152Z,6.73
2018-04-15T15:31:00.612Z,11.60
2018-04-15T15:33:28.072Z,11.60
2018-04-15T15:35:55.524Z,6.43
2018-04-15T15:38:22.981Z,9.83
2018-04-15T15:40:50.451Z,6.67
2018-04-15T15:43:17.913Z,13.63
2018-04-15T15:45:46.145Z,9.33
2018-04-15T15:48:14.116Z,15.07
2018-04-15T15:50:41.576Z,9.07
2018-04-15T15:53:09.543Z,11.97
2018-04-15T15:55:37.009Z,9.63
2018-04-15T15:58:04.465Z,7.60
2018-04-15T16:00:31.925Z,8.73
2018-04-15T16:02:59.376Z,9.43
2018-04-15T16:05:26.939Z,8.07
2018-04-15T16:07:54.400Z,12.03
2018-04-15T16:10:21.859Z,8.07
2018-04-15T16:12:49.405Z,9.57
2018-04-15T16:15:16.865Z,8.27
2018-04-15T16:17:44.316Z,9.07
2018-04-15T16:20:11.776Z,10.77
2018-04-15T16:22:39.237Z,8.97
2018-04-15T16:25:06.688Z,7.27
2018-04-15T16:27:34.149Z,7.10
2018-04-15T16:30:01.605Z,17.70
2018-04-15T16:32:29.060Z,13.33
2018-04-15T16:34:56.615Z,9.80
2018-04-15T16:37:24.072Z,6.90
2018-04-15T16:39:52.303Z,7.03
2018-04-15T16:42:19.763Z,6.90
2018-04-15T16:44:47.249Z,9.03
2018-04-15T16:47:14.708Z,10.13
2018-04-15T16:49:42.625Z,8.43
2018-04-15T16:52:10.083Z,8.50
2018-04-15T16:54:37.539Z,10.03
2018-04-15T16:57:05.014Z,10.27
2018-04-15T16:59:32.465Z,9.50
2018-04-15T17:01:59.919Z,7.53
2018-04-15T17:04:27.372Z,7.03
2018-04-15T17:06:54.843Z,8.50
2018-04-15T17:09:22.288Z,6.87
2018-04-15T17:11:49.755Z,8.60
2018-04-15T17:14:17.204Z,7.00
2018-04-15T17:16:44.664Z,7.37
2018-04-15T17:19:12.119Z,7.80
2018-04-15T17:21:39.585Z,10.33
2018-04-15T17:24:07.032Z,8.43
2018-04-15T17:26:34.491Z,7.30
2018-04-15T17:29:01.950Z,7.40
2018-04-15T17:31:29.424Z,6.10
2018-04-15T17:33:56.951Z,12.43
2018-04-15T17:36:24.343Z,14.53
2018-04-15T17:38:51.800Z,9.23
2018-04-15T17:41:19.347Z,6.43
2018-04-15T17:43:46.866Z,10.37
2018-04-15T17:46:14.365Z,6.20
2018-04-15T17:48:41.828Z,13.60
2018-04-15T17:51:09.293Z,10.37
2018-04-15T17:53:36.743Z,7.30
2018-04-15T17:56:04.200Z,7.23
2018-04-15T17:58:32.424Z,11.63
2018-04-15T18:00:59.884Z,9.33
2018-04-15T18:03:27.341Z,7.87
2018-04-15T18:05:54.796Z,8.57
2018-04-15T18:08:22.248Z,10.47
2018-04-15T18:10:49.707Z,11.60
2018-04-15T18:13:17.174Z,14.77
2018-04-15T18:15:44.624Z,16.73
2018-04-15T18:18:12.083Z,22.00
2018-04-15T18:20:39.548Z,11.80
2018-04-15T18:23:07.021Z,10.53
2018-04-15T18:25:34.480Z,13.53
2018-04-15T18:28:02.069Z,12.90
2018-04-15T18:30:29.501Z,11.40
2018-04-15T18:32:56.967Z,14.43
2018-04-15T18:35:25.233Z,9.53
2018-04-15T18:37:52.701Z,13.07
2018-04-15T18:40:20.916Z,12.57
2018-04-15T18:42:48.408Z,11.47
2018-04-15T18:45:15.858Z,15.83
2018-04-15T18:47:43.328Z,13.93
2018-04-15T18:50:11.707Z,12.60
2018-04-15T18:52:39.120Z,16.43
2018-04-15T18:55:06.581Z,13.23
2018-04-15T18:57:34.056Z,10.97
2018-04-15T19:00:01.511Z,16.37
2018-04-15T19:02:28.977Z,13.30
2018-04-15T19:04:56.543Z,14.53
2018-04-15T19:07:24.008Z,14.77
2018-04-15T19:09:51.509Z,11.07
2018-04-15T19:12:18.963Z,15.83
2018-04-15T19:14:46.431Z,12.00
2018-04-15T19:17:13.892Z,13.77
2018-04-15T19:19:41.343Z,11.07
2018-04-15T19:22:08.805Z,11.40
2018-04-15T19:24:36.268Z,12.50
2018-04-15T19:27:03.731Z,8.03
2018-04-15T19:29:31.217Z,11.37
2018-04-15T19:31:59.473Z,15.70
2018-04-15T19:34:26.913Z,17.87
2018-04-15T19:36:54.449Z,7.93
2018-04-15T19:39:21.897Z,11.37
2018-04-15T19:41:49.396Z,14.70
2018-04-15T19:44:16.808Z,13.93
2018-04-15T19:46:44.287Z,13.10
2018-04-15T19:49:11.760Z,15.37
2018-04-15T19:51:39.224Z,11.90
2018-04-15T19:54:06.680Z,9.83
2018-04-15T19:56:34.172Z,8.17
2018-04-15T19:59:02.405Z,11.80
2018-04-15T20:01:29.972Z,8.17
2018-04-15T20:03:57.428Z,6.67
2018-04-15T20:06:24.980Z,10.63
2018-04-15T20:08:52.449Z,8.63
2018-04-15T20:11:19.913Z,12.40
2018-04-15T20:13:47.382Z,12.00
2018-04-15T20:16:15.600Z,9.07
2018-04-15T20:18:43.071Z,9.70
2018-04-15T20:21:10.545Z,9.40
2018-04-15T20:23:38.010Z,7.83
2018-04-15T20:26:05.476Z,13.07
2018-04-15T20:28:33.720Z,9.57
2018-04-15T20:31:01.177Z,12.30
2018-04-15T20:33:28.645Z,12.40
2018-04-15T20:35:56.103Z,11.43
2018-04-15T20:38:23.572Z,8.90
2018-04-15T20:40:51.824Z,8.47
2018-04-15T20:43:19.297Z,7.87
2018-04-15T20:45:46.748Z,12.03
2018-04-15T20:48:14.213Z,5.60
2018-04-15T20:50:42.461Z,16.70
2018-04-15T20:53:09.936Z,12.37
2018-04-15T20:55:37.392Z,13.00
2018-04-15T20:58:04.876Z,12.97
2018-04-15T21:00:33.148Z,16.27
2018-04-15T21:03:00.635Z,14.13
2018-04-15T21:05:28.124Z,11.27
2018-04-15T21:07:55.589Z,19.67
2018-04-15T21:10:23.044Z,8.60
2018-04-15T21:12:50.508Z,12.30
2018-04-15T21:15:18.771Z,8.50
2018-04-15T21:17:46.238Z,13.37
2018-04-15T21:20:13.689Z,9.00
2018-04-15T21:22:41.157Z,10.17
2018-04-15T21:25:09.379Z,10.47
2018-04-15T21:27:36.841Z,11.70
2018-04-15T21:30:04.300Z,10.00
2018-04-15T21:32:31.761Z,10.73
2018-04-15T21:34:59.216Z,13.50
2018-04-15T21:37:26.689Z,9.90
2018-04-15T21:39:54.148Z,11.07
2018-04-15T21:42:21.603Z,14.50
2018-04-15T21:44:49.160Z,10.33
2018-04-15T21:47:16.611Z,9.03
2018-04-15T21:49:44.165Z,8.03
2018-04-15T21:52:11.629Z,12.23
2018-04-15T21:54:39.096Z,7.27
2018-04-15T21:57:06.543Z,6.23
2018-04-15T21:59:34.003Z,11.43
2018-04-15T22:02:01.464Z,6.53
2018-04-15T22:04:28.924Z,8.70
2018-04-15T22:06:57.141Z,8.90
2018-04-15T22:09:24.605Z,10.47
2018-04-15T22:12:04.036Z,6.53
2018-04-15T22:14:31.488Z,7.17
2018-04-15T22:16:58.942Z,9.10
2018-04-15T22:19:26.396Z,9.23
2018-04-15T22:21:53.852Z,6.50
2018-04-15T22:24:21.313Z,7.97
2018-04-15T22:26:48.767Z,9.07
2018-04-15T22:29:16.233Z,7.17
2018-04-15T22:31:43.684Z,6.10
2018-04-15T22:34:11.144Z,8.27
2018-04-15T22:36:38.595Z,6.93
2018-04-15T22:39:06.057Z,5.57
2018-04-15T22:41:33.512Z,9.57
2018-04-15T22:44:00.985Z,6.87
2018-04-15T22:46:28.432Z,6.90
2018-04-15T22:48:56.795Z,10.43
2018-04-15T22:51:24.281Z,8.50
2018-04-15T22:53:51.736Z,5.80
2018-04-15T22:56:19.187Z,8.80
2018-04-15T22:58:47.441Z,10.57
2018-04-15T23:01:14.888Z,8.87
2018-04-15T23:03:42.344Z,7.23
2018-04-15T23:06:09.801Z,5.83
2018-04-15T23:08:37.263Z,7.77
2018-04-15T23:11:04.753Z,8.27
2018-04-15T23:13:32.223Z,9.07
2018-04-15T23:15:59.667Z,8.80
2018-04-15T23:18:27.128Z,5.17
2018-04-15T23:20:54.588Z,5.87
2018-04-15T23:23:22.241Z,6.57
2018-04-15T23:25:49.695Z,5.90
2018-04-15T23:28:17.147Z,5.37
2018-04-15T23:30:46.120Z,5.90
2018-04-15T23:33:13.573Z,6.13
2018-04-15T23:35:41.032Z,5.57
2018-04-15T23:38:08.484Z,5.80
2018-04-15T23:40:35.943Z,9.20
2018-04-15T23:43:03.405Z,6.70
2018-04-15T23:45:30.859Z,5.07
2018-04-15T23:47:58.315Z,6.60
2018-04-15T23:50:25.865Z,5.53
2018-04-15T23:52:53.339Z,4.67
2018-04-15T23:55:20.907Z,9.10
2018-04-15T23:57:48.365Z,5.93
